createdAt,value
2016-07-12T00:02:05.534Z,20.6
2016-07-12T00:07:04.433Z,20.5
2016-07-12T00:12:04.604Z,20.3
2016-07-12T00:17:06.983Z,20.3
2016-07-12T00:22:04.902Z,20.3
2016-07-12T00:27:04.861Z,20.3
2016-07-12T00:32:05.412Z,20.1
2016-07-12T00:37:04.616Z,20.0
2016-07-12T00:42:04.624Z,19.8
2016-07-12T00:47:05.981Z,19.9
2016-07-12T00:52:04.542Z,19.8
2016-07-12T00:57:05.163Z,19.8
2016-07-12T01:02:05.370Z,19.8
2016-07-12T01:07:04.848Z,19.8
2016-07-12T01:12:04.730Z,19.8
2016-07-12T01:17:06.246Z,19.9
2016-07-12T01:22:05.318Z,20.0
2016-07-12T01:27:05.034Z,20.1
2016-07-12T01:32:05.147Z,20.1
2016-07-12T01:37:04.487Z,20.1
2016-07-12T01:42:04.392Z,20.2
2016-07-12T01:47:05.504Z,20.2
2016-07-12T01:52:04.797Z,20.1
2016-07-12T01:57:05.295Z,20.2
2016-07-12T02:02:04.967Z,20.1
2016-07-12T02:07:05.419Z,20.1
2016-07-12T02:12:05.157Z,20.1
2016-07-12T02:17:06.298Z,20.0
2016-07-12T02:22:05.234Z,20.0
2016-07-12T02:27:05.427Z,19.8
2016-07-12T02:32:05.176Z,19.8
2016-07-12T02:37:05.134Z,19.7
2016-07-12T02:42:04.962Z,19.6
2016-07-12T02:47:05.601Z,19.6
2016-07-12T02:52:05.046Z,19.6
2016-07-12T02:57:05.595Z,19.7
2016-07-12T03:02:06.268Z,19.8
2016-07-12T03:07:04.859Z,19.8
2016-07-12T03:12:04.523Z,19.9
2016-07-12T03:17:20.909Z,19.9
2016-07-12T03:22:05.628Z,20.0
2016-07-12T03:27:04.598Z,20.1
2016-07-12T03:32:15.955Z,20.1
2016-07-12T03:37:04.451Z,20.2
2016-07-12T03:42:04.530Z,20.2
2016-07-12T03:47:18.686Z,20.2
2016-07-12T03:52:03.670Z,20.2
2016-07-12T03:57:03.664Z,20.2
2016-07-12T04:02:24.102Z,20.3
2016-07-12T04:07:03.998Z,20.3
2016-07-12T04:12:03.910Z,20.3
2016-07-12T04:17:21.701Z,20.3
2016-07-12T04:22:04.328Z,20.3
2016-07-12T04:27:03.899Z,20.3
2016-07-12T04:32:18.482Z,20.2
2016-07-12T04:37:03.362Z,20.3
2016-07-12T04:42:03.972Z,20.3
2016-07-12T04:47:18.155Z,20.3
2016-07-12T04:52:03.750Z,20.3
2016-07-12T04:57:04.288Z,20.5
2016-07-12T05:02:17.837Z,20.5
2016-07-12T05:07:04.309Z,20.4
2016-07-12T05:12:03.578Z,20.3
2016-07-12T05:17:25.635Z,20.5
2016-07-12T05:22:04.134Z,20.7
2016-07-12T05:27:08.962Z,20.8
2016-07-12T05:32:23.061Z,20.6
2016-07-12T05:37:04.811Z,20.4
2016-07-12T05:42:04.350Z,20.4
2016-07-12T05:47:18.149Z,20.4
2016-07-12T05:52:05.611Z,20.4
2016-07-12T05:57:03.945Z,20.4
2016-07-12T06:02:23.376Z,20.6
2016-07-12T06:07:04.203Z,20.7
2016-07-12T06:12:04.411Z,20.9
2016-07-12T06:17:20.498Z,21.2
2016-07-12T06:22:04.393Z,21.2
2016-07-12T06:27:04.245Z,22.0
2016-07-12T06:32:22.834Z,22.2
2016-07-12T06:37:04.542Z,22.2
2016-07-12T06:42:04.151Z,22.5
2016-07-12T06:47:18.451Z,22.6
2016-07-12T06:52:04.074Z,22.7
2016-07-12T06:57:04.144Z,22.9
2016-07-12T07:02:17.597Z,23.0
2016-07-12T07:07:04.391Z,23.0
2016-07-12T07:12:04.520Z,23.3
2016-07-12T07:17:25.663Z,23.6
2016-07-12T07:22:04.458Z,23.7
2016-07-12T07:27:04.140Z,23.7
2016-07-12T07:32:17.953Z,23.7
2016-07-12T07:37:09.948Z,23.7
2016-07-12T07:42:04.544Z,23.7
2016-07-12T07:47:23.162Z,23.9
2016-07-12T07:52:04.714Z,24.1
2016-07-12T07:57:04.679Z,24.4
2016-07-12T08:02:15.667Z,24.5
2016-07-12T08:07:04.302Z,24.5
2016-07-12T08:12:04.252Z,24.6
2016-07-12T08:17:25.353Z,24.6
2016-07-12T08:22:04.445Z,24.6
2016-07-12T08:27:04.700Z,24.4
2016-07-12T08:32:18.743Z,24.0
2016-07-12T08:37:04.302Z,23.7
2016-07-12T08:42:04.034Z,23.6
2016-07-12T08:47:23.136Z,23.5
2016-07-12T08:52:08.387Z,23.4
2016-07-12T08:57:04.040Z,23.3
2016-07-12T09:02:23.701Z,23.3
2016-07-12T09:07:05.839Z,24.1
2016-07-12T09:12:04.724Z,24.1
2016-07-12T09:17:25.511Z,24.6
2016-07-12T09:22:04.743Z,24.3
2016-07-12T09:27:04.612Z,24.3
2016-07-12T09:32:18.029Z,23.7
2016-07-12T09:37:04.507Z,23.8
2016-07-12T09:42:04.646Z,23.7
2016-07-12T09:47:22.422Z,24.5
2016-07-12T09:52:04.001Z,24.5
2016-07-12T09:57:04.149Z,24.7
2016-07-12T10:02:17.937Z,24.4
2016-07-12T10:07:04.174Z,24.4
2016-07-12T10:12:04.611Z,24.3
2016-07-12T10:17:18.264Z,24.6
2016-07-12T10:22:04.221Z,24.6
2016-07-12T10:27:03.937Z,25.0
2016-07-12T10:32:18.182Z,24.6
2016-07-12T10:37:03.968Z,24.5
2016-07-12T10:42:04.325Z,24.3
2016-07-12T10:47:18.037Z,24.4
2016-07-12T10:52:04.331Z,24.4
2016-07-12T10:57:03.803Z,24.5
2016-07-12T11:02:23.378Z,24.6
2016-07-12T11:07:04.163Z,24.6
2016-07-12T11:12:04.305Z,24.4
2016-07-12T11:17:24.096Z,24.0
2016-07-12T11:22:03.778Z,24.1
2016-07-12T11:27:04.581Z,24.1
2016-07-12T11:32:18.767Z,24.5
2016-07-12T11:37:03.917Z,25.5
2016-07-12T11:42:04.681Z,26.0
2016-07-12T11:47:18.080Z,26.2
2016-07-12T11:52:03.760Z,26.2
2016-07-12T11:57:03.835Z,26.0
2016-07-12T12:02:16.693Z,25.9
2016-07-12T12:07:03.889Z,25.9
2016-07-12T12:12:04.501Z,25.4
2016-07-12T12:17:25.290Z,25.3
2016-07-12T12:22:03.728Z,25.1
2016-07-12T12:27:03.939Z,24.6
2016-07-12T12:32:18.567Z,24.5
2016-07-12T12:37:04.300Z,24.4
2016-07-12T12:42:03.843Z,24.7
2016-07-12T12:47:18.739Z,25.0
2016-07-12T12:52:03.963Z,25.5
2016-07-12T12:57:04.456Z,25.5
2016-07-12T13:02:15.112Z,26.6
2016-07-12T13:07:04.887Z,27.2
2016-07-12T13:12:04.482Z,27.2
2016-07-12T13:17:25.702Z,27.8
2016-07-12T13:22:07.003Z,28.1
2016-07-12T13:27:04.979Z,27.7
2016-07-12T13:32:29.619Z,26.9
2016-07-12T13:37:03.771Z,26.4
2016-07-12T13:42:04.031Z,26.4
2016-07-12T13:47:22.672Z,26.0
2016-07-12T13:52:03.890Z,25.5
2016-07-12T13:57:04.122Z,25.2
2016-07-12T20:02:04.904Z,19.6
2016-07-12T20:07:04.445Z,19.5
2016-07-12T20:12:05.051Z,19.4
2016-07-12T20:17:07.140Z,19.3
2016-07-12T20:22:04.656Z,19.0
2016-07-12T20:27:03.850Z,19.0
2016-07-12T20:32:05.673Z,18.9
2016-07-12T20:37:05.387Z,17.3
2016-07-12T20:42:04.200Z,17.1
2016-07-12T20:47:05.269Z,17.2
2016-07-12T20:52:04.885Z,17.3
2016-07-12T20:57:04.963Z,17.3
2016-07-12T21:02:05.268Z,17.4
2016-07-12T21:07:05.074Z,17.6
2016-07-12T21:12:04.390Z,17.6
2016-07-12T21:17:06.995Z,17.7
2016-07-12T21:22:04.348Z,17.8
2016-07-12T21:27:04.706Z,17.7
2016-07-12T21:32:05.164Z,17.8
2016-07-12T21:37:05.156Z,17.8
2016-07-12T21:42:04.982Z,17.9
2016-07-12T21:47:05.122Z,17.9
2016-07-12T21:52:03.963Z,18.0
2016-07-12T21:57:04.722Z,18.1
2016-07-12T22:02:04.866Z,18.1
2016-07-12T22:07:04.812Z,18.0
2016-07-12T22:12:04.808Z,18.0
2016-07-12T22:17:06.230Z,17.9
2016-07-12T22:22:04.312Z,17.9
2016-07-12T22:27:04.695Z,17.8
2016-07-12T22:32:04.891Z,17.6
2016-07-12T22:37:04.687Z,17.5
2016-07-12T22:42:04.553Z,17.5
2016-07-12T22:47:05.010Z,17.5
2016-07-12T22:52:05.414Z,17.5
2016-07-12T22:57:04.822Z,17.5
2016-07-12T23:02:04.759Z,17.5
2016-07-12T23:07:04.781Z,17.7
2016-07-12T23:12:04.909Z,17.6
2016-07-12T23:17:06.085Z,17.6
2016-07-12T23:22:04.578Z,17.6
2016-07-12T23:27:04.784Z,17.6
2016-07-12T23:32:04.340Z,17.5
2016-07-12T23:37:04.774Z,17.1
2016-07-12T23:42:04.657Z,17.1
2016-07-12T23:47:05.367Z,17.1
2016-07-12T23:52:04.738Z,16.9
2016-07-12T23:57:04.973Z,16.8
